MSC Nuria — 3ESE2 — position and weather

sailwx.info

Track history (hours):
 
Tides and Currents Weather Stations Pressure Air Temp Water Temp Dewpoint Dewpoint Depression Visibility Wind Speed Wind Dir Waves Ship Positions

MSC Nuria

Last reported at 2017-Aug-14 12:48 UTC. Time now 2017-Aug-16 21:47 UTC.
Position N 31°17' W 123°08'.

Length 275 m; draft 10 m.

Type: Ship (hazmat cat A). MMSI: 370272977.

Date/timePositionNaut miles runAvg speedWind from/ knotsBaromVisibWave heightAir tempDewpointWater temp
2017-Aug-14 12:48N 31°17' W 123°08'517.2
2017-Aug-14 12:30N 31°14' W 123°03'917.3
2017-Aug-14 12:00N 31°08' W 122°56'5017.4
2017-Aug-14 09:06N 30°39' W 122°08'217.7
2017-Aug-14 09:00N 30°38' W 122°06'917.3
2017-Aug-14 08:30N 30°33' W 121°58'917.1
2017-Aug-14 08:00N 30°29' W 121°50'1717.0
2017-Aug-14 07:02N 30°19' W 121°34'116.0
2017-Aug-14 06:59N 30°19' W 121°33'916.9
2017-Aug-14 06:27N 30°13' W 121°25'916.8
2017-Aug-14 05:54N 30°08' W 121°16'716.8
2017-Aug-14 05:30N 30°04' W 121°10'916.8
2017-Aug-14 04:58N 29°58' W 121°02'816.9
2017-Aug-14 04:30N 29°53' W 120°55'816.9
2017-Aug-14 04:00N 29°48' W 120°47'1017.0
2017-Aug-14 03:24N 29°41' W 120°38'717.0
2017-Aug-14 03:00N 29°37' W 120°32'816.9
2017-Aug-14 02:30N 29°31' W 120°25'817.0
2017-Aug-14 02:00N 29°26' W 120°18'816.8
2017-Aug-14 01:30N 29°20' W 120°10'816.7
2017-Aug-14 01:00N 29°15' W 120°03'816.6
2017-Aug-14 00:30N 29°10' W 119°56'816.5
2017-Aug-14 00:00N 29°04' W 119°48'816.5
2017-Aug-13 23:30N 28°59' W 119°41'816.5
2017-Aug-13 23:00N 28°54' W 119°34'816.7
2017-Aug-13 22:31N 28°48' W 119°27'816.8
2017-Aug-13 22:00N 28°43' W 119°19'816.9
2017-Aug-13 21:31N 28°37' W 119°12'917.1
2017-Aug-13 21:00N 28°32' W 119°05'917.1
2017-Aug-13 20:30N 28°26' W 118°57'1017.2
2017-Aug-13 19:56N 28°20' W 118°49'917.3
2017-Aug-13 19:27N 28°14' W 118°42'1617.4
2017-Aug-13 18:30N 28°03' W 118°28'917.3
2017-Aug-13 18:00N 27°58' W 118°20'916.4
2017-Aug-13 17:29N 27°52' W 118°13'5 6.4
2017-Aug-13 16:44N 27°49' W 118°09'416.9
2017-Aug-13 16:30N 27°47' W 118°06'917.3
2017-Aug-13 16:00N 27°41' W 117°58'1017.5
2017-Aug-13 15:25N 27°34' W 117°50'1317.7
2017-Aug-13 14:41N 27°25' W 117°39'517.8
2017-Aug-13 14:23N 27°21' W 117°34'1717.8
2017-Aug-13 13:27N 27°11' W 117°20'817.8
2017-Aug-13 13:00N 27°06' W 117°13'917.6
2017-Aug-13 12:30N 26°60' W 117°06'917.6
2017-Aug-13 12:00N 26°54' W 116°59'917.3
2017-Aug-13 11:30N 26°48' W 116°51'816.9
2017-Aug-13 11:00N 26°43' W 116°44'817.0
2017-Aug-13 10:30N 26°37' W 116°37'1016.7
2017-Aug-13 09:54N 26°31' W 116°28'616.7
2017-Aug-13 09:30N 26°26' W 116°23'816.8
2017-Aug-13 09:00N 26°21' W 116°16'917.0
2017-Aug-13 08:30N 26°15' W 116°09'917.2
2017-Aug-13 08:00N 26°09' W 116°02'917.3
2017-Aug-13 07:30N 26°03' W 115°55'917.3
2017-Aug-13 07:00N 25°57' W 115°48'917.5
2017-Aug-13 06:30N 25°51' W 115°41'917.5
2017-Aug-13 06:00N 25°45' W 115°34'917.4
2017-Aug-13 05:30N 25°39' W 115°26'917.6
2017-Aug-13 05:00N 25°34' W 115°19'917.3
2017-Aug-13 04:30N 25°28' W 115°12'917.5
2017-Aug-13 04:00N 25°22' W 115°05'917.3
2017-Aug-13 03:30N 25°16' W 114°58'917.7
2017-Aug-13 03:00N 25°10' W 114°51'1518.1
2017-Aug-13 02:10N 24°59' W 114°39'318.5
2017-Aug-13 02:00N 24°57' W 114°36'918.4
2017-Aug-13 01:30N 24°51' W 114°28'1217.8
2017-Aug-13 00:50N 24°44' W 114°19'2817.5
2017-Aug-12 23:16N 24°25' W 113°57'617.4
2017-Aug-12 22:53N 24°20' W 113°51'  
2017-Aug-07 06:29N 08°52' W 079°30'5 9.0
2017-Aug-07 05:58N 08°56' W 079°33'2 1.2
2017-Aug-07 04:34N 08°57' W 079°34'0 0.0
2017-Aug-07 04:19N 08°57' W 079°34'  
2017-Aug-04 19:19N 09°07' W 079°48'512.9
2017-Aug-04 18:55N 09°11' W 079°51'4 9.9
2017-Aug-04 18:30N 09°12' W 079°55'1 2.3
2017-Aug-04 17:57N 09°14' W 079°56'1 1.7
2017-Aug-04 17:30N 09°14' W 079°55'2 3.8
2017-Aug-04 17:01N 09°16' W 079°55'0 0.4
2017-Aug-04 16:30N 09°16' W 079°55'0 0.4
2017-Aug-04 16:00N 09°17' W 079°55'0 0.5
2017-Aug-04 15:31N 09°17' W 079°55'1 2.7
2017-Aug-04 15:00N 09°18' W 079°55'7 6.6
2017-Aug-04 14:00N 09°25' W 079°55'3 6.6
2017-Aug-04 13:30N 09°28' W 079°55'3 5.8
2017-Aug-04 13:01N 09°30' W 079°56'  
Track history (hours):
 
Tides and Currents Weather Stations Pressure Air Temp Water Temp Dewpoint Dewpoint Depression Visibility Wind Speed Wind Dir Waves Ship Positions

MSC Nuria

Last reported at 2017-Aug-14 12:48 UTC. Time now 2017-Aug-16 21:47 UTC.
Position N 31°17' W 123°08'.

Length 275 m; draft 10 m.

Type: Ship (hazmat cat A). MMSI: 370272977.

Date/timePositionNaut miles runAvg speedWind from/ knotsBaromVisibWave heightAir tempDewpointWater temp
2017-Aug-14 12:48N 31°17' W 123°08'517.2
2017-Aug-14 12:30N 31°14' W 123°03'917.3
2017-Aug-14 12:00N 31°08' W 122°56'5017.4
2017-Aug-14 09:06N 30°39' W 122°08'217.7
2017-Aug-14 09:00N 30°38' W 122°06'917.3
2017-Aug-14 08:30N 30°33' W 121°58'917.1
2017-Aug-14 08:00N 30°29' W 121°50'1717.0
2017-Aug-14 07:02N 30°19' W 121°34'116.0
2017-Aug-14 06:59N 30°19' W 121°33'916.9
2017-Aug-14 06:27N 30°13' W 121°25'916.8
2017-Aug-14 05:54N 30°08' W 121°16'716.8
2017-Aug-14 05:30N 30°04' W 121°10'916.8
2017-Aug-14 04:58N 29°58' W 121°02'816.9
2017-Aug-14 04:30N 29°53' W 120°55'816.9
2017-Aug-14 04:00N 29°48' W 120°47'1017.0
2017-Aug-14 03:24N 29°41' W 120°38'717.0
2017-Aug-14 03:00N 29°37' W 120°32'816.9
2017-Aug-14 02:30N 29°31' W 120°25'817.0
2017-Aug-14 02:00N 29°26' W 120°18'816.8
2017-Aug-14 01:30N 29°20' W 120°10'816.7
2017-Aug-14 01:00N 29°15' W 120°03'816.6
2017-Aug-14 00:30N 29°10' W 119°56'816.5
2017-Aug-14 00:00N 29°04' W 119°48'816.5
2017-Aug-13 23:30N 28°59' W 119°41'816.5
2017-Aug-13 23:00N 28°54' W 119°34'816.7
2017-Aug-13 22:31N 28°48' W 119°27'816.8
2017-Aug-13 22:00N 28°43' W 119°19'816.9
2017-Aug-13 21:31N 28°37' W 119°12'917.1
2017-Aug-13 21:00N 28°32' W 119°05'917.1
2017-Aug-13 20:30N 28°26' W 118°57'1017.2
2017-Aug-13 19:56N 28°20' W 118°49'917.3
2017-Aug-13 19:27N 28°14' W 118°42'1617.4
2017-Aug-13 18:30N 28°03' W 118°28'917.3
2017-Aug-13 18:00N 27°58' W 118°20'916.4
2017-Aug-13 17:29N 27°52' W 118°13'5 6.4
2017-Aug-13 16:44N 27°49' W 118°09'416.9
2017-Aug-13 16:30N 27°47' W 118°06'917.3
2017-Aug-13 16:00N 27°41' W 117°58'1017.5
2017-Aug-13 15:25N 27°34' W 117°50'1317.7
2017-Aug-13 14:41N 27°25' W 117°39'517.8
2017-Aug-13 14:23N 27°21' W 117°34'1717.8
2017-Aug-13 13:27N 27°11' W 117°20'817.8
2017-Aug-13 13:00N 27°06' W 117°13'917.6
2017-Aug-13 12:30N 26°60' W 117°06'917.6
2017-Aug-13 12:00N 26°54' W 116°59'917.3
2017-Aug-13 11:30N 26°48' W 116°51'816.9
2017-Aug-13 11:00N 26°43' W 116°44'817.0
2017-Aug-13 10:30N 26°37' W 116°37'1016.7
2017-Aug-13 09:54N 26°31' W 116°28'616.7
2017-Aug-13 09:30N 26°26' W 116°23'816.8
2017-Aug-13 09:00N 26°21' W 116°16'917.0
2017-Aug-13 08:30N 26°15' W 116°09'917.2
2017-Aug-13 08:00N 26°09' W 116°02'917.3
2017-Aug-13 07:30N 26°03' W 115°55'917.3
2017-Aug-13 07:00N 25°57' W 115°48'917.5
2017-Aug-13 06:30N 25°51' W 115°41'917.5
2017-Aug-13 06:00N 25°45' W 115°34'917.4
2017-Aug-13 05:30N 25°39' W 115°26'917.6
2017-Aug-13 05:00N 25°34' W 115°19'917.3
2017-Aug-13 04:30N 25°28' W 115°12'917.5
2017-Aug-13 04:00N 25°22' W 115°05'917.3
2017-Aug-13 03:30N 25°16' W 114°58'917.7
2017-Aug-13 03:00N 25°10' W 114°51'1518.1
2017-Aug-13 02:10N 24°59' W 114°39'318.5
2017-Aug-13 02:00N 24°57' W 114°36'918.4
2017-Aug-13 01:30N 24°51' W 114°28'1217.8
2017-Aug-13 00:50N 24°44' W 114°19'2817.5
2017-Aug-12 23:16N 24°25' W 113°57'617.4
2017-Aug-12 22:53N 24°20' W 113°51'  
2017-Aug-07 06:29N 08°52' W 079°30'5 9.0
2017-Aug-07 05:58N 08°56' W 079°33'2 1.2
2017-Aug-07 04:34N 08°57' W 079°34'0 0.0
2017-Aug-07 04:19N 08°57' W 079°34'  
2017-Aug-04 19:19N 09°07' W 079°48'512.9
2017-Aug-04 18:55N 09°11' W 079°51'4 9.9
2017-Aug-04 18:30N 09°12' W 079°55'1 2.3
2017-Aug-04 17:57N 09°14' W 079°56'1 1.7
2017-Aug-04 17:30N 09°14' W 079°55'2 3.8
2017-Aug-04 17:01N 09°16' W 079°55'0 0.4
2017-Aug-04 16:30N 09°16' W 079°55'0 0.4
2017-Aug-04 16:00N 09°17' W 079°55'0 0.5
2017-Aug-04 15:31N 09°17' W 079°55'1 2.7
2017-Aug-04 15:00N 09°18' W 079°55'7 6.6
2017-Aug-04 14:00N 09°25' W 079°55'3 6.6
2017-Aug-04 13:30N 09°28' W 079°55'3 5.8
2017-Aug-04 13:01N 09°30' W 079°56'  

Dump ship's entire track history